createdAt,value
2023-04-13T00:00:11.447Z,8.95
2023-04-13T00:02:40.177Z,8.97
2023-04-13T00:05:12.084Z,8.90
2023-04-13T00:07:40.910Z,8.88
2023-04-13T00:10:10.972Z,8.85
2023-04-13T00:12:41.029Z,8.81
2023-04-13T00:15:09.980Z,8.74
2023-04-13T00:17:38.104Z,8.67
2023-04-13T00:20:12.941Z,8.60
2023-04-13T00:22:43.168Z,8.58
2023-04-13T00:25:12.721Z,8.57
2023-04-13T00:27:40.756Z,8.58
2023-04-13T00:30:10.016Z,8.58
2023-04-13T00:32:38.922Z,8.59
2023-04-13T00:35:08.534Z,8.63
2023-04-13T00:37:37.306Z,8.62
2023-04-13T00:40:09.077Z,8.62
2023-04-13T00:42:37.356Z,8.62
2023-04-13T00:45:06.122Z,8.59
2023-04-13T00:47:35.739Z,8.54
2023-04-13T00:50:06.972Z,8.54
2023-04-13T00:52:38.400Z,8.54
2023-04-13T00:55:08.860Z,8.48
2023-04-13T00:57:40.314Z,8.33
2023-04-13T01:00:10.465Z,8.36
2023-04-13T01:02:42.113Z,8.36
2023-04-13T01:05:15.624Z,8.40
2023-04-13T01:07:55.517Z,8.40
2023-04-13T01:10:32.005Z,8.43
2023-04-13T01:13:10.660Z,8.48
2023-04-13T01:15:52.346Z,8.43
2023-04-13T01:18:22.817Z,8.38
2023-04-13T01:20:54.910Z,8.30
2023-04-13T01:23:37.021Z,8.24
2023-04-13T01:26:09.013Z,8.17
2023-04-13T01:28:40.736Z,8.10
2023-04-13T01:31:11.940Z,8.09
2023-04-13T01:33:41.716Z,7.98
2023-04-13T01:36:12.664Z,8.04
2023-04-13T01:38:40.971Z,8.04
2023-04-13T01:41:10.982Z,8.00
2023-04-13T01:43:46.329Z,7.89
2023-04-13T01:46:16.052Z,7.89
2023-04-13T01:49:18.612Z,7.83
2023-04-13T01:52:03.344Z,7.82
2023-04-13T01:54:34.000Z,7.70
2023-04-13T01:57:03.343Z,7.59
2023-04-13T01:59:32.888Z,7.49
2023-04-13T02:02:00.870Z,7.45
2023-04-13T02:04:29.602Z,7.40
2023-04-13T02:06:57.568Z,7.46
2023-04-13T02:09:33.392Z,7.50
2023-04-13T02:12:01.393Z,7.45
2023-04-13T02:14:29.415Z,7.36
2023-04-13T02:16:59.194Z,7.27
2023-04-13T02:19:27.180Z,7.19
2023-04-13T02:21:55.600Z,7.13
2023-04-13T02:24:23.553Z,7.15
2023-04-13T02:26:51.467Z,7.00
2023-04-13T02:29:19.411Z,7.01
2023-04-13T02:31:47.373Z,6.91
2023-04-13T02:34:16.763Z,6.97
2023-04-13T02:36:45.344Z,6.97
2023-04-13T02:39:13.450Z,7.05
2023-04-13T02:41:43.381Z,7.20
2023-04-13T02:44:16.938Z,7.28
2023-04-13T02:46:54.054Z,7.26
2023-04-13T02:49:23.436Z,7.05
2023-04-13T02:52:00.608Z,6.55
2023-04-13T02:54:57.819Z,6.64
2023-04-13T02:57:30.311Z,6.90
2023-04-13T03:00:00.260Z,6.96
2023-04-13T03:02:39.454Z,6.82
2023-04-13T03:05:10.372Z,6.65
2023-04-13T03:07:38.933Z,6.46
2023-04-13T03:10:09.050Z,6.31
2023-04-13T03:12:37.094Z,6.45
2023-04-13T03:15:08.162Z,6.52
2023-04-13T03:17:40.372Z,6.60
2023-04-13T03:20:13.597Z,6.28
2023-04-13T03:22:46.349Z,6.27
2023-04-13T03:25:14.322Z,6.39
2023-04-13T03:27:43.662Z,6.39
2023-04-13T03:30:12.938Z,6.56
2023-04-13T03:32:52.315Z,6.62
2023-04-13T03:35:24.147Z,6.66
2023-04-13T03:37:52.479Z,6.70
2023-04-13T03:40:37.402Z,6.54
2023-04-13T03:43:06.655Z,6.53
2023-04-13T03:45:38.393Z,6.48
2023-04-13T03:48:11.041Z,6.49
2023-04-13T03:50:40.496Z,6.44
2023-04-13T03:53:10.014Z,6.36
2023-04-13T03:55:38.446Z,6.38
2023-04-13T03:58:08.547Z,6.31
2023-04-13T04:00:36.520Z,6.34
2023-04-13T04:03:13.774Z,6.29
2023-04-13T04:06:03.472Z,6.32
2023-04-13T04:08:31.692Z,6.33
2023-04-13T04:11:04.486Z,6.42
2023-04-13T04:13:33.546Z,6.43
2023-04-13T04:16:07.280Z,6.49
2023-04-13T04:18:37.256Z,6.57
2023-04-13T04:21:08.888Z,6.59
2023-04-13T04:23:37.989Z,6.62
2023-04-13T04:26:07.948Z,6.64
2023-04-13T04:29:03.113Z,6.68
2023-04-13T04:31:37.534Z,6.80
2023-04-13T04:34:11.611Z,6.81
2023-04-13T04:36:50.321Z,6.79
2023-04-13T04:39:22.351Z,6.77
2023-04-13T04:42:03.732Z,6.60
2023-04-13T04:44:33.029Z,6.47
2023-04-13T04:47:06.150Z,6.49
2023-04-13T04:49:41.524Z,6.65
2023-04-13T04:52:12.702Z,6.77
2023-04-13T04:54:41.751Z,6.81
2023-04-13T04:57:12.369Z,6.85
2023-04-13T04:59:41.703Z,6.70
2023-04-13T05:02:09.675Z,6.68
2023-04-13T05:04:38.039Z,6.69
2023-04-13T05:07:06.389Z,6.69
2023-04-13T05:09:41.109Z,6.62
2023-04-13T05:12:09.085Z,6.57
2023-04-13T05:14:40.184Z,6.46
2023-04-13T05:17:08.458Z,6.44
2023-04-13T05:19:40.101Z,6.46
2023-04-13T05:22:13.060Z,6.45
2023-04-13T05:24:49.400Z,6.48
2023-04-13T05:27:18.289Z,6.53
2023-04-13T05:29:47.884Z,6.56
2023-04-13T05:32:19.748Z,6.46
2023-04-13T05:34:49.657Z,6.53
2023-04-13T05:37:22.060Z,6.56
2023-04-13T05:39:51.942Z,6.54
2023-04-13T05:42:24.878Z,6.58
2023-04-13T05:44:53.137Z,6.55
2023-04-13T05:47:23.213Z,6.55
2023-04-13T05:49:55.711Z,6.52
2023-04-13T05:52:25.103Z,6.53
2023-04-13T05:54:54.825Z,6.53
2023-04-13T05:57:24.520Z,6.50
2023-04-13T05:59:55.710Z,6.52
2023-04-13T06:02:27.818Z,6.55
2023-04-13T06:04:56.485Z,6.60
2023-04-13T06:07:26.140Z,6.68
2023-04-13T06:09:55.464Z,6.75
2023-04-13T06:12:24.008Z,6.82
2023-04-13T06:14:53.827Z,6.95
2023-04-13T06:17:21.826Z,7.03
2023-04-13T06:19:49.810Z,7.20
2023-04-13T06:22:17.792Z,7.17
2023-04-13T06:24:45.703Z,6.99
2023-04-13T06:27:15.455Z,6.77
2023-04-13T06:29:46.782Z,6.75
2023-04-13T06:32:15.009Z,6.70
2023-04-13T06:34:45.743Z,6.81
2023-04-13T06:37:14.694Z,7.02
2023-04-13T06:39:48.504Z,7.19
2023-04-13T06:42:19.616Z,7.22
2023-04-13T06:44:59.819Z,7.37
2023-04-13T06:47:33.022Z,7.62
2023-04-13T06:50:06.559Z,7.71
2023-04-13T06:52:37.538Z,7.64
2023-04-13T06:55:07.195Z,7.60
2023-04-13T06:57:40.702Z,7.62
2023-04-13T07:00:22.272Z,7.59
2023-04-13T07:02:59.287Z,7.34
2023-04-13T07:05:27.508Z,7.36
2023-04-13T07:08:01.326Z,7.39
2023-04-13T07:10:30.117Z,7.40
2023-04-13T07:13:04.571Z,7.44
2023-04-13T07:15:33.740Z,7.43
2023-04-13T07:18:02.057Z,7.43
2023-04-13T07:20:30.097Z,7.44
2023-04-13T07:22:58.470Z,7.54
2023-04-13T07:25:27.129Z,7.58
2023-04-13T07:27:55.124Z,7.74
2023-04-13T07:30:25.140Z,7.72
2023-04-13T07:32:53.415Z,7.57
2023-04-13T07:35:22.525Z,7.63
2023-04-13T07:37:53.195Z,7.76
2023-04-13T07:40:22.794Z,7.78
2023-04-13T07:42:54.335Z,7.87
2023-04-13T07:45:22.698Z,8.15
2023-04-13T07:47:53.563Z,8.53
2023-04-13T07:50:21.991Z,8.64
2023-04-13T07:52:50.685Z,8.63
2023-04-13T07:55:21.858Z,8.73
2023-04-13T07:57:50.562Z,8.97
2023-04-13T08:00:20.711Z,9.25
2023-04-13T08:02:55.797Z,9.23
2023-04-13T08:05:25.671Z,9.14
2023-04-13T08:07:53.816Z,9.04
2023-04-13T08:10:21.913Z,8.94
2023-04-13T08:12:50.046Z,8.80
2023-04-13T08:15:20.096Z,8.69
2023-04-13T08:17:48.376Z,8.66
2023-04-13T08:20:18.559Z,8.51
2023-04-13T08:22:47.172Z,8.59
2023-04-13T08:25:15.553Z,8.69
2023-04-13T08:27:43.905Z,8.82
2023-04-13T08:30:14.714Z,8.74
2023-04-13T08:32:54.818Z,8.78
2023-04-13T08:35:26.113Z,8.74
2023-04-13T08:37:54.389Z,8.15
2023-04-13T08:40:23.202Z,7.70
2023-04-13T08:42:56.179Z,7.08
2023-04-13T08:45:24.781Z,6.61
2023-04-13T08:47:52.790Z,6.31
2023-04-13T08:50:27.106Z,6.67
2023-04-13T08:52:56.749Z,7.17
2023-04-13T08:55:27.491Z,7.43
2023-04-13T08:57:59.245Z,7.33
2023-04-13T09:00:27.509Z,7.06
2023-04-13T09:03:06.521Z,6.85
2023-04-13T09:05:43.338Z,6.55
2023-04-13T09:08:14.195Z,6.56
2023-04-13T09:10:45.785Z,6.33
2023-04-13T09:13:13.916Z,6.22
2023-04-13T09:15:47.207Z,6.27
2023-04-13T09:18:34.052Z,6.22
2023-04-13T09:21:11.459Z,6.05
2023-04-13T09:23:39.387Z,5.92
2023-04-13T09:26:08.159Z,5.93
2023-04-13T09:28:46.713Z,6.01
2023-04-13T09:31:15.800Z,6.15
2023-04-13T09:33:47.656Z,6.41
2023-04-13T09:36:18.634Z,6.40
2023-04-13T09:38:51.560Z,6.43
2023-04-13T09:41:29.818Z,6.55
2023-04-13T09:43:58.157Z,6.71
2023-04-13T09:46:26.506Z,6.97
2023-04-13T09:49:02.786Z,7.08
2023-04-13T09:51:39.216Z,6.95
2023-04-13T09:54:08.126Z,6.95
2023-04-13T09:56:52.628Z,7.00
2023-04-13T09:59:21.686Z,7.17
2023-04-13T10:01:49.915Z,7.36
2023-04-13T10:04:17.933Z,7.54
2023-04-13T10:06:48.366Z,7.77
2023-04-13T10:09:17.096Z,8.07
2023-04-13T10:11:47.326Z,8.29
2023-04-13T10:14:19.154Z,8.50
2023-04-13T10:17:08.395Z,8.66
2023-04-13T10:19:41.246Z,8.42
2023-04-13T10:22:12.440Z,8.53
2023-04-13T10:24:41.448Z,8.77
2023-04-13T10:27:14.712Z,8.76
2023-04-13T10:29:42.739Z,8.31
2023-04-13T10:32:21.991Z,7.75
2023-04-13T10:34:50.074Z,7.45
2023-04-13T10:37:21.584Z,7.26
2023-04-13T10:39:50.014Z,7.42
2023-04-13T10:42:18.298Z,7.63
2023-04-13T10:44:47.491Z,7.88
2023-04-13T10:47:16.904Z,8.12
2023-04-13T10:49:46.142Z,8.43
2023-04-13T10:52:14.606Z,8.31
2023-04-13T10:54:44.665Z,7.88
2023-04-13T10:57:13.371Z,7.88
2023-04-13T10:59:56.309Z,7.30
2023-04-13T11:02:27.277Z,6.79
2023-04-13T11:04:55.718Z,6.98
2023-04-13T11:07:26.210Z,7.31
2023-04-13T11:10:02.831Z,7.61
2023-04-13T11:12:31.307Z,7.98
2023-04-13T11:15:00.892Z,8.38
2023-04-13T11:17:28.957Z,8.69
2023-04-13T11:19:58.591Z,8.93
2023-04-13T11:22:28.068Z,8.97
2023-04-13T11:25:09.099Z,8.88
2023-04-13T11:27:38.076Z,8.65
2023-04-13T11:30:09.472Z,9.06
2023-04-13T11:32:43.051Z,9.34
2023-04-13T11:35:14.060Z,9.56
2023-04-13T11:37:43.236Z,9.78
2023-04-13T11:40:17.497Z,9.55
2023-04-13T11:42:47.003Z,9.31
2023-04-13T11:45:15.931Z,8.91
2023-04-13T11:47:44.681Z,8.75
2023-04-13T11:50:15.436Z,8.89
2023-04-13T11:52:45.287Z,9.19
2023-04-13T11:55:23.228Z,9.42
2023-04-13T11:57:53.345Z,9.74
2023-04-13T12:00:26.342Z,9.67
2023-04-13T12:05:29.081Z,9.07
2023-04-13T12:07:58.926Z,9.13
2023-04-13T12:10:39.135Z,9.05
2023-04-13T12:16:02.361Z,8.88
2023-04-13T12:18:37.347Z,8.94
2023-04-13T12:21:06.552Z,8.27
2023-04-13T12:23:34.657Z,8.45
2023-04-13T12:26:25.844Z,8.86
2023-04-13T12:28:57.824Z,8.99
2023-04-13T12:31:26.410Z,8.92
2023-04-13T12:33:54.338Z,9.02
2023-04-13T12:36:22.222Z,9.36
2023-04-13T12:38:50.153Z,9.29
2023-04-13T12:41:19.407Z,9.22
2023-04-13T12:43:47.369Z,9.44
2023-04-13T12:46:15.702Z,9.66
2023-04-13T12:48:43.821Z,9.99
2023-04-13T12:51:11.779Z,9.73
2023-04-13T12:53:39.700Z,9.34
2023-04-13T12:56:08.363Z,9.65
2023-04-13T12:58:37.984Z,10.12
2023-04-13T13:01:06.910Z,10.12
2023-04-13T13:03:36.836Z,10.08
2023-04-13T13:06:05.950Z,10.29
2023-04-13T13:08:36.770Z,10.39
2023-04-13T13:11:08.218Z,10.21
2023-04-13T13:13:37.662Z,9.64
2023-04-13T13:16:06.262Z,9.41
2023-04-13T13:18:49.223Z,9.51
2023-04-13T13:21:23.221Z,9.64
2023-04-13T13:23:51.158Z,10.01
2023-04-13T13:28:52.164Z,9.85
2023-04-13T13:31:20.383Z,10.42
2023-04-13T13:33:48.491Z,10.22
2023-04-13T13:36:16.609Z,10.30
2023-04-13T13:38:44.857Z,10.29
2023-04-13T13:41:12.767Z,9.97
2023-04-13T13:43:41.030Z,9.98
2023-04-13T13:46:11.599Z,9.88
2023-04-13T13:48:40.817Z,9.67
2023-04-13T13:51:35.045Z,9.93
2023-04-13T13:54:04.690Z,10.45
2023-04-13T13:56:32.603Z,10.43
2023-04-13T13:59:00.773Z,10.52
2023-04-13T14:01:31.145Z,10.46
2023-04-13T14:03:59.333Z,9.92
2023-04-13T14:06:27.868Z,9.59
2023-04-13T14:08:56.530Z,9.62
2023-04-13T14:11:24.617Z,9.84
2023-04-13T14:13:53.697Z,10.12
2023-04-13T14:16:22.977Z,10.15
2023-04-13T14:18:52.510Z,10.25
2023-04-13T14:21:21.644Z,10.43
2023-04-13T14:23:50.304Z,11.11
2023-04-13T14:26:18.695Z,10.53
2023-04-13T14:28:46.797Z,10.03
2023-04-13T14:31:16.157Z,9.82
2023-04-13T14:33:44.207Z,9.77
2023-04-13T14:36:15.181Z,9.76
2023-04-13T14:38:43.362Z,9.69
2023-04-13T14:41:11.453Z,9.74
2023-04-13T14:43:39.514Z,9.68
2023-04-13T14:46:07.512Z,9.58
2023-04-13T14:48:35.689Z,9.34
2023-04-13T14:51:03.636Z,8.97
2023-04-13T14:53:32.923Z,8.90
2023-04-13T14:56:00.950Z,8.95
2023-04-13T14:58:28.865Z,9.24
2023-04-13T15:00:56.764Z,9.73
2023-04-13T15:03:25.355Z,10.23
2023-04-13T15:05:58.399Z,10.65
2023-04-13T15:08:32.662Z,10.73
2023-04-13T15:11:00.611Z,11.04
2023-04-13T15:13:28.649Z,11.33
2023-04-13T15:15:56.744Z,11.60
2023-04-13T15:18:24.637Z,11.22
2023-04-13T15:20:52.580Z,10.99
2023-04-13T15:23:20.844Z,10.61
2023-04-13T15:25:50.113Z,10.50
2023-04-13T15:28:18.654Z,10.32
2023-04-13T15:30:46.866Z,10.04
2023-04-13T15:33:14.808Z,10.07
2023-04-13T15:35:42.752Z,9.91
2023-04-13T15:38:10.693Z,10.24
2023-04-13T15:40:38.836Z,10.47
2023-04-13T15:43:08.735Z,11.03
2023-04-13T15:45:36.860Z,11.45
2023-04-13T15:48:05.203Z,11.68
2023-04-13T15:50:33.453Z,11.90
2023-04-13T15:53:01.675Z,11.84
2023-04-13T15:55:29.664Z,12.32
2023-04-13T15:57:57.632Z,11.67
2023-04-13T16:00:27.441Z,10.83
2023-04-13T16:02:55.577Z,10.37
2023-04-13T16:05:23.882Z,9.88
2023-04-13T16:07:52.689Z,9.67
2023-04-13T16:10:20.817Z,9.72
2023-04-13T16:12:50.163Z,9.61
2023-04-13T16:15:19.519Z,9.40
2023-04-13T16:17:48.993Z,9.44
2023-04-13T16:20:21.277Z,9.34
2023-04-13T16:22:52.997Z,9.39
2023-04-13T16:25:21.302Z,9.21
2023-04-13T16:27:49.361Z,9.20
2023-04-13T16:30:20.907Z,9.11
2023-04-13T16:32:51.064Z,9.10
2023-04-13T16:35:19.296Z,9.14
2023-04-13T16:37:47.228Z,9.11
2023-04-13T16:40:15.569Z,9.04
2023-04-13T16:42:43.968Z,9.02
2023-04-13T16:45:15.112Z,8.92
2023-04-13T16:47:43.498Z,8.80
2023-04-13T16:50:13.537Z,8.31
2023-04-13T16:52:41.975Z,8.20
2023-04-13T16:55:14.228Z,8.46
2023-04-13T16:57:42.844Z,8.66
2023-04-13T17:00:12.250Z,8.65
2023-04-13T17:02:41.894Z,8.36
2023-04-13T17:05:13.068Z,8.29
2023-04-13T17:07:42.974Z,8.19
2023-04-13T17:10:12.582Z,8.15
2023-04-13T17:12:40.824Z,8.15
2023-04-13T17:15:10.078Z,8.11
2023-04-13T17:17:38.779Z,8.14
2023-04-13T17:20:08.465Z,8.29
2023-04-13T17:22:37.962Z,8.73
2023-04-13T17:25:06.900Z,9.05
2023-04-13T17:27:34.800Z,9.53
2023-04-13T17:30:02.719Z,9.90
2023-04-13T17:32:30.651Z,10.19
2023-04-13T17:34:58.704Z,10.43
2023-04-13T17:37:27.035Z,10.54
2023-04-13T17:39:56.438Z,10.52
2023-04-13T17:42:24.477Z,10.48
2023-04-13T17:44:52.410Z,10.49
2023-04-13T17:47:20.345Z,10.43
2023-04-13T17:49:48.290Z,10.31
2023-04-13T17:52:16.443Z,10.20
2023-04-13T17:54:44.440Z,10.01
2023-04-13T17:57:13.742Z,9.86
2023-04-13T17:59:41.951Z,9.77
2023-04-13T18:02:10.092Z,9.71
2023-04-13T18:04:38.289Z,9.61
2023-04-13T18:07:06.310Z,9.30
2023-04-13T18:09:34.224Z,9.18
2023-04-13T18:12:02.194Z,9.18
2023-04-13T18:14:31.494Z,9.19
2023-04-13T18:16:59.424Z,9.10
2023-04-13T18:19:28.288Z,9.02
2023-04-13T18:21:56.241Z,8.97
2023-04-13T18:24:24.153Z,8.97
2023-04-13T18:26:52.818Z,8.90
2023-04-13T18:29:20.865Z,8.84
2023-04-13T18:31:50.586Z,8.73
2023-04-13T18:34:18.617Z,8.69
2023-04-13T18:36:47.444Z,8.62
2023-04-13T18:39:15.535Z,8.59
2023-04-13T18:41:43.435Z,8.51
2023-04-13T18:44:11.353Z,8.55
2023-04-13T18:46:39.376Z,8.34
2023-04-13T18:49:08.731Z,8.38
2023-04-13T18:51:36.681Z,8.42
2023-04-13T18:54:04.971Z,8.42
2023-04-13T18:56:33.030Z,8.41
2023-04-13T18:59:00.968Z,8.38
2023-04-13T19:01:28.948Z,8.37
2023-04-13T19:03:57.215Z,8.27
2023-04-13T19:06:27.115Z,8.10
2023-04-13T19:08:55.065Z,7.92
2023-04-13T19:11:27.456Z,7.95
2023-04-13T19:13:55.720Z,7.99
2023-04-13T19:16:23.724Z,7.97
2023-04-13T19:18:51.789Z,7.97
2023-04-13T19:21:23.722Z,8.00
2023-04-13T19:23:53.031Z,8.02
2023-04-13T19:26:20.982Z,8.03
2023-04-13T19:28:48.886Z,7.82
2023-04-13T19:31:17.040Z,7.64
2023-04-13T19:33:46.170Z,7.68
2023-04-13T19:36:14.064Z,7.73
2023-04-13T19:38:45.131Z,7.76
2023-04-13T19:41:14.727Z,7.73
2023-04-13T19:43:42.657Z,7.65
2023-04-13T19:46:10.659Z,7.69
2023-04-13T19:48:38.637Z,7.71
2023-04-13T19:51:06.773Z,7.70
2023-04-13T19:53:36.763Z,7.69
2023-04-13T19:56:05.925Z,7.68
2023-04-13T19:58:35.220Z,7.61
2023-04-13T20:01:06.276Z,7.65
2023-04-13T20:03:34.551Z,7.64
2023-04-13T20:06:02.849Z,7.56
2023-04-13T20:08:30.920Z,7.43
2023-04-13T20:10:59.955Z,7.55
2023-04-13T20:13:28.033Z,7.73
2023-04-13T20:15:57.381Z,7.82
2023-04-13T20:18:25.427Z,7.78
2023-04-13T20:20:53.365Z,7.75
2023-04-13T20:23:21.497Z,7.75
2023-04-13T20:25:49.453Z,7.75
2023-04-13T20:28:17.869Z,7.80
2023-04-13T20:30:45.899Z,7.80
2023-04-13T20:33:15.564Z,7.66
2023-04-13T20:35:43.473Z,7.60
2023-04-13T20:38:13.954Z,7.65
2023-04-13T20:40:45.636Z,7.72
2023-04-13T20:43:15.559Z,7.75
2023-04-13T20:45:45.306Z,7.75
2023-04-13T20:50:48.146Z,7.86
2023-04-13T20:53:17.584Z,7.92
2023-04-13T20:55:45.627Z,7.90
2023-04-13T20:58:13.659Z,7.84
2023-04-13T21:00:43.617Z,7.81
2023-04-13T21:03:11.818Z,7.81
2023-04-13T21:05:41.268Z,7.80
2023-04-13T21:08:09.216Z,7.78
2023-04-13T21:10:37.106Z,7.78
2023-04-13T21:13:05.978Z,7.73
2023-04-13T21:15:33.962Z,7.74
2023-04-13T21:18:01.928Z,7.72
2023-04-13T21:20:29.883Z,7.66
2023-04-13T21:22:59.616Z,7.59
2023-04-13T21:25:27.811Z,7.51
2023-04-13T21:27:55.730Z,7.50
2023-04-13T21:30:23.673Z,7.49
2023-04-13T21:32:51.793Z,7.45
2023-04-13T21:35:20.005Z,7.45
2023-04-13T21:37:47.960Z,7.46
2023-04-13T21:40:18.381Z,7.45
2023-04-13T21:42:46.372Z,7.41
2023-04-13T21:45:14.639Z,7.33
2023-04-13T21:47:42.573Z,7.30
2023-04-13T21:50:11.582Z,7.27
2023-04-13T21:52:39.495Z,7.21
2023-04-13T21:55:07.945Z,7.16
2023-04-13T21:57:37.294Z,7.14
2023-04-13T22:00:06.817Z,7.01
2023-04-13T22:02:40.554Z,6.93
2023-04-13T22:05:09.809Z,6.90
2023-04-13T22:07:42.908Z,6.79
2023-04-13T22:10:11.915Z,6.72
2023-04-13T22:12:41.255Z,6.73
2023-04-13T22:15:09.801Z,6.68
2023-04-13T22:17:37.812Z,6.63
2023-04-13T22:20:06.498Z,6.65
2023-04-13T22:22:34.436Z,6.62
2023-04-13T22:25:02.332Z,6.55
2023-04-13T22:27:30.371Z,6.53
2023-04-13T22:29:59.641Z,6.49
2023-04-13T22:32:29.053Z,6.53
2023-04-13T22:34:58.008Z,6.55
2023-04-13T22:37:25.882Z,6.60
2023-04-13T22:39:53.824Z,6.64
2023-04-13T22:42:21.717Z,6.65
2023-04-13T22:44:49.647Z,6.65
2023-04-13T22:47:18.974Z,6.65
2023-04-13T22:49:46.997Z,6.65
2023-04-13T22:52:18.941Z,6.62
2023-04-13T22:54:47.090Z,6.49
2023-04-13T22:57:15.106Z,6.41
2023-04-13T22:59:43.014Z,6.45
2023-04-13T23:02:11.216Z,6.49
2023-04-13T23:04:40.655Z,6.52
2023-04-13T23:07:08.626Z,6.54
2023-04-13T23:09:36.576Z,6.44
2023-04-13T23:12:04.592Z,6.33
2023-04-13T23:14:32.476Z,6.23
2023-04-13T23:17:00.516Z,6.32
2023-04-13T23:19:28.489Z,6.43
2023-04-13T23:21:57.821Z,6.41
2023-04-13T23:24:25.809Z,6.38
2023-04-13T23:26:53.822Z,6.34
2023-04-13T23:29:22.255Z,6.33
2023-04-13T23:31:50.487Z,6.28
2023-04-13T23:34:18.424Z,6.30
2023-04-13T23:36:46.356Z,6.23
2023-04-13T23:39:15.724Z,6.20
2023-04-13T23:41:43.597Z,6.29
2023-04-13T23:44:12.134Z,6.33
2023-04-13T23:46:40.115Z,6.31
2023-04-13T23:49:07.991Z,6.23
2023-04-13T23:51:35.919Z,6.19
2023-04-13T23:54:03.935Z,6.19
2023-04-13T23:56:33.936Z,6.19
2023-04-13T23:59:02.240Z,6.17
